sensor_id;sensor_type;location;lat;lon;timestamp;temperature;humidity
18218;DHT22;9234;49.344;11.120;2023-11-19T00:00:26;6.60;99.90
18218;DHT22;9234;49.344;11.120;2023-11-19T00:02:55;6.60;99.90
18218;DHT22;9234;49.344;11.120;2023-11-19T00:05:23;6.60;99.90
18218;DHT22;9234;49.344;11.120;2023-11-19T00:07:53;6.60;99.90
18218;DHT22;9234;49.344;11.120;2023-11-19T00:10:21;6.60;99.90
18218;DHT22;9234;49.344;11.120;2023-11-19T00:12:50;6.60;99.90
18218;DHT22;9234;49.344;11.120;2023-11-19T00:15:21;6.60;99.90
18218;DHT22;9234;49.344;11.120;2023-11-19T00:17:51;6.70;99.90
18218;DHT22;9234;49.344;11.120;2023-11-19T00:20:20;6.70;99.90
18218;DHT22;9234;49.344;11.120;2023-11-19T00:22:49;6.70;99.90
18218;DHT22;9234;49.344;11.120;2023-11-19T00:25:21;6.70;99.90
18218;DHT22;9234;49.344;11.120;2023-11-19T00:27:49;6.70;99.90
18218;DHT22;9234;49.344;11.120;2023-11-19T00:30:23;6.70;99.90
18218;DHT22;9234;49.344;11.120;2023-11-19T00:32:53;6.70;99.90
18218;DHT22;9234;49.344;11.120;2023-11-19T00:35:21;6.70;99.90
18218;DHT22;9234;49.344;11.120;2023-11-19T00:37:49;6.70;99.90
18218;DHT22;9234;49.344;11.120;2023-11-19T00:40:18;6.70;99.90
18218;DHT22;9234;49.344;11.120;2023-11-19T00:42:50;6.70;99.90
18218;DHT22;9234;49.344;11.120;2023-11-19T00:45:18;6.70;99.90
18218;DHT22;9234;49.344;11.120;2023-11-19T00:47:46;6.70;99.90
18218;DHT22;9234;49.344;11.120;2023-11-19T00:50:15;6.80;99.90
18218;DHT22;9234;49.344;11.120;2023-11-19T00:52:44;6.80;99.90
18218;DHT22;9234;49.344;11.120;2023-11-19T00:55:12;6.80;99.90
18218;DHT22;9234;49.344;11.120;2023-11-19T00:57:42;6.80;99.90
18218;DHT22;9234;49.344;11.120;2023-11-19T01:00:11;6.80;99.90
18218;DHT22;9234;49.344;11.120;2023-11-19T01:02:46;6.80;99.90
18218;DHT22;9234;49.344;11.120;2023-11-19T01:05:18;6.80;99.90
18218;DHT22;9234;49.344;11.120;2023-11-19T01:07:49;6.90;99.90
18218;DHT22;9234;49.344;11.120;2023-11-19T01:10:19;6.90;99.90
18218;DHT22;9234;49.344;11.120;2023-11-19T01:12:49;6.90;99.90
18218;DHT22;9234;49.344;11.120;2023-11-19T01:15:18;6.90;99.90
18218;DHT22;9234;49.344;11.120;2023-11-19T01:17:47;6.90;99.90
18218;DHT22;9234;49.344;11.120;2023-11-19T01:20:19;6.90;99.90
18218;DHT22;9234;49.344;11.120;2023-11-19T01:22:48;6.90;99.90
18218;DHT22;9234;49.344;11.120;2023-11-19T01:25:17;6.90;99.90
18218;DHT22;9234;49.344;11.120;2023-11-19T01:27:46;6.90;99.90
18218;DHT22;9234;49.344;11.120;2023-11-19T01:30:15;6.90;99.90
18218;DHT22;9234;49.344;11.120;2023-11-19T01:32:44;6.90;99.90
18218;DHT22;9234;49.344;11.120;2023-11-19T01:35:12;6.90;99.90
18218;DHT22;9234;49.344;11.120;2023-11-19T01:37:41;6.90;99.90
18218;DHT22;9234;49.344;11.120;2023-11-19T01:40:10;6.90;99.90
18218;DHT22;9234;49.344;11.120;2023-11-19T01:42:40;7.00;99.90
18218;DHT22;9234;49.344;11.120;2023-11-19T01:45:09;7.00;99.90
18218;DHT22;9234;49.344;11.120;2023-11-19T01:47:45;7.00;99.90
18218;DHT22;9234;49.344;11.120;2023-11-19T01:50:13;7.00;99.90
18218;DHT22;9234;49.344;11.120;2023-11-19T01:52:42;7.00;99.90
18218;DHT22;9234;49.344;11.120;2023-11-19T01:55:13;7.00;99.90
18218;DHT22;9234;49.344;11.120;2023-11-19T01:57:42;7.00;99.90
18218;DHT22;9234;49.344;11.120;2023-11-19T02:00:11;7.00;99.90
18218;DHT22;9234;49.344;11.120;2023-11-19T02:02:43;7.00;99.90
18218;DHT22;9234;49.344;11.120;2023-11-19T02:05:14;7.00;99.90
18218;DHT22;9234;49.344;11.120;2023-11-19T02:07:43;7.00;99.90
18218;DHT22;9234;49.344;11.120;2023-11-19T02:10:13;7.10;99.90
18218;DHT22;9234;49.344;11.120;2023-11-19T02:12:44;7.10;99.90
18218;DHT22;9234;49.344;11.120;2023-11-19T02:15:12;7.10;99.90
18218;DHT22;9234;49.344;11.120;2023-11-19T02:17:40;7.10;99.90
18218;DHT22;9234;49.344;11.120;2023-11-19T02:20:12;7.10;99.90
18218;DHT22;9234;49.344;11.120;2023-11-19T02:22:41;7.10;99.90
18218;DHT22;9234;49.344;11.120;2023-11-19T02:25:15;7.10;99.90
18218;DHT22;9234;49.344;11.120;2023-11-19T02:27:53;7.10;99.90
18218;DHT22;9234;49.344;11.120;2023-11-19T02:30:24;7.10;99.90
18218;DHT22;9234;49.344;11.120;2023-11-19T02:32:53;7.10;99.90
18218;DHT22;9234;49.344;11.120;2023-11-19T02:35:24;7.10;99.90
18218;DHT22;9234;49.344;11.120;2023-11-19T02:37:53;7.10;99.90
18218;DHT22;9234;49.344;11.120;2023-11-19T02:40:22;7.10;99.90
18218;DHT22;9234;49.344;11.120;2023-11-19T02:42:53;7.20;99.90
18218;DHT22;9234;49.344;11.120;2023-11-19T02:45:22;7.20;99.90
18218;DHT22;9234;49.344;11.120;2023-11-19T02:47:52;7.20;99.90
18218;DHT22;9234;49.344;11.120;2023-11-19T02:50:21;7.20;99.90
18218;DHT22;9234;49.344;11.120;2023-11-19T02:52:54;7.20;99.90
18218;DHT22;9234;49.344;11.120;2023-11-19T02:55:24;7.20;99.90
18218;DHT22;9234;49.344;11.120;2023-11-19T02:57:56;7.20;99.90
18218;DHT22;9234;49.344;11.120;2023-11-19T03:00:26;7.30;99.90
18218;DHT22;9234;49.344;11.120;2023-11-19T03:03:01;7.30;99.90
18218;DHT22;9234;49.344;11.120;2023-11-19T03:05:44;7.30;99.90
18218;DHT22;9234;49.344;11.120;2023-11-19T03:08:14;7.30;99.90
18218;DHT22;9234;49.344;11.120;2023-11-19T03:10:45;7.30;99.90
18218;DHT22;9234;49.344;11.120;2023-11-19T03:13:15;7.30;99.90
18218;DHT22;9234;49.344;11.120;2023-11-19T03:15:44;7.30;99.90
18218;DHT22;9234;49.344;11.120;2023-11-19T03:18:13;7.40;99.90
18218;DHT22;9234;49.344;11.120;2023-11-19T03:20:41;7.30;99.90
18218;DHT22;9234;49.344;11.120;2023-11-19T03:23:09;7.30;99.90
18218;DHT22;9234;49.344;11.120;2023-11-19T03:25:37;7.40;99.90
18218;DHT22;9234;49.344;11.120;2023-11-19T03:28:06;7.40;99.90
18218;DHT22;9234;49.344;11.120;2023-11-19T03:30:35;7.40;99.90
18218;DHT22;9234;49.344;11.120;2023-11-19T03:33:04;7.40;99.90
18218;DHT22;9234;49.344;11.120;2023-11-19T03:35:33;7.40;99.90
18218;DHT22;9234;49.344;11.120;2023-11-19T03:38:02;7.40;99.90
18218;DHT22;9234;49.344;11.120;2023-11-19T03:40:30;7.40;99.90
18218;DHT22;9234;49.344;11.120;2023-11-19T03:42:59;7.40;99.90
18218;DHT22;9234;49.344;11.120;2023-11-19T03:45:27;7.50;99.90
18218;DHT22;9234;49.344;11.120;2023-11-19T03:47:57;7.50;99.90
18218;DHT22;9234;49.344;11.120;2023-11-19T03:50:25;7.50;99.90
18218;DHT22;9234;49.344;11.120;2023-11-19T03:52:53;7.50;99.90
18218;DHT22;9234;49.344;11.120;2023-11-19T03:55:22;7.50;99.90
18218;DHT22;9234;49.344;11.120;2023-11-19T03:57:50;7.50;99.90
18218;DHT22;9234;49.344;11.120;2023-11-19T04:00:19;7.50;99.90
18218;DHT22;9234;49.344;11.120;2023-11-19T04:02:48;7.50;99.90
18218;DHT22;9234;49.344;11.120;2023-11-19T04:05:18;7.50;99.90
18218;DHT22;9234;49.344;11.120;2023-11-19T04:07:46;7.50;99.90
18218;DHT22;9234;49.344;11.120;2023-11-19T04:10:15;7.50;99.90
18218;DHT22;9234;49.344;11.120;2023-11-19T04:12:45;7.50;99.90
18218;DHT22;9234;49.344;11.120;2023-11-19T04:15:14;7.60;99.90
18218;DHT22;9234;49.344;11.120;2023-11-19T04:17:43;7.50;99.90
18218;DHT22;9234;49.344;11.120;2023-11-19T04:20:12;7.60;99.90
18218;DHT22;9234;49.344;11.120;2023-11-19T04:22:43;7.60;99.90
18218;DHT22;9234;49.344;11.120;2023-11-19T04:25:11;7.60;99.90
18218;DHT22;9234;49.344;11.120;2023-11-19T04:27:42;7.60;99.90
18218;DHT22;9234;49.344;11.120;2023-11-19T04:30:11;7.70;99.90
18218;DHT22;9234;49.344;11.120;2023-11-19T04:32:40;7.70;99.90
18218;DHT22;9234;49.344;11.120;2023-11-19T04:35:09;7.70;99.90
18218;DHT22;9234;49.344;11.120;2023-11-19T04:37:37;7.70;99.90
18218;DHT22;9234;49.344;11.120;2023-11-19T04:40:07;7.80;99.90
18218;DHT22;9234;49.344;11.120;2023-11-19T04:42:37;7.80;99.90
18218;DHT22;9234;49.344;11.120;2023-11-19T04:45:07;7.80;99.90
18218;DHT22;9234;49.344;11.120;2023-11-19T04:47:37;7.80;99.90
18218;DHT22;9234;49.344;11.120;2023-11-19T04:50:06;7.90;99.90
18218;DHT22;9234;49.344;11.120;2023-11-19T04:52:38;7.90;99.90
18218;DHT22;9234;49.344;11.120;2023-11-19T04:55:10;7.90;99.90
18218;DHT22;9234;49.344;11.120;2023-11-19T04:57:41;7.90;99.90
18218;DHT22;9234;49.344;11.120;2023-11-19T05:00:11;8.00;99.90
18218;DHT22;9234;49.344;11.120;2023-11-19T05:02:44;8.00;99.90
18218;DHT22;9234;49.344;11.120;2023-11-19T05:05:12;8.00;99.90
18218;DHT22;9234;49.344;11.120;2023-11-19T05:07:41;8.00;99.90
18218;DHT22;9234;49.344;11.120;2023-11-19T05:10:10;8.00;99.90
18218;DHT22;9234;49.344;11.120;2023-11-19T05:12:39;8.00;99.90
18218;DHT22;9234;49.344;11.120;2023-11-19T05:15:08;8.10;99.90
18218;DHT22;9234;49.344;11.120;2023-11-19T05:17:38;8.10;99.90
18218;DHT22;9234;49.344;11.120;2023-11-19T05:20:07;8.10;99.90
18218;DHT22;9234;49.344;11.120;2023-11-19T05:22:40;8.10;99.90
18218;DHT22;9234;49.344;11.120;2023-11-19T05:25:10;8.20;99.90
18218;DHT22;9234;49.344;11.120;2023-11-19T05:27:38;8.20;99.90
18218;DHT22;9234;49.344;11.120;2023-11-19T05:30:07;8.20;99.90
18218;DHT22;9234;49.344;11.120;2023-11-19T05:32:37;8.20;99.90
18218;DHT22;9234;49.344;11.120;2023-11-19T05:35:07;8.30;99.90
18218;DHT22;9234;49.344;11.120;2023-11-19T05:37:36;8.30;99.90
18218;DHT22;9234;49.344;11.120;2023-11-19T05:40:06;8.30;99.90
18218;DHT22;9234;49.344;11.120;2023-11-19T05:42:43;8.30;99.90
18218;DHT22;9234;49.344;11.120;2023-11-19T05:45:12;8.40;99.90
18218;DHT22;9234;49.344;11.120;2023-11-19T05:47:41;8.40;99.90
18218;DHT22;9234;49.344;11.120;2023-11-19T05:50:10;8.40;99.90
18218;DHT22;9234;49.344;11.120;2023-11-19T05:52:39;8.50;99.90
18218;DHT22;9234;49.344;11.120;2023-11-19T05:55:07;8.50;99.90
18218;DHT22;9234;49.344;11.120;2023-11-19T05:57:37;8.50;99.90
18218;DHT22;9234;49.344;11.120;2023-11-19T06:00:11;8.50;99.90
18218;DHT22;9234;49.344;11.120;2023-11-19T06:02:42;8.60;99.90
18218;DHT22;9234;49.344;11.120;2023-11-19T06:05:10;8.60;99.90
18218;DHT22;9234;49.344;11.120;2023-11-19T06:07:39;8.60;99.90
18218;DHT22;9234;49.344;11.120;2023-11-19T06:10:08;8.60;99.90
18218;DHT22;9234;49.344;11.120;2023-11-19T06:12:38;8.70;99.90
18218;DHT22;9234;49.344;11.120;2023-11-19T06:15:10;8.70;99.90
18218;DHT22;9234;49.344;11.120;2023-11-19T06:17:38;8.70;99.90
18218;DHT22;9234;49.344;11.120;2023-11-19T06:20:08;8.70;99.90
18218;DHT22;9234;49.344;11.120;2023-11-19T06:22:38;8.70;99.90
18218;DHT22;9234;49.344;11.120;2023-11-19T06:25:07;8.80;99.90
18218;DHT22;9234;49.344;11.120;2023-11-19T06:27:36;8.80;99.90
18218;DHT22;9234;49.344;11.120;2023-11-19T06:30:07;8.80;99.90
18218;DHT22;9234;49.344;11.120;2023-11-19T06:32:41;8.80;99.90
18218;DHT22;9234;49.344;11.120;2023-11-19T06:35:09;8.90;99.90
18218;DHT22;9234;49.344;11.120;2023-11-19T06:37:38;8.90;99.90
18218;DHT22;9234;49.344;11.120;2023-11-19T06:40:08;8.90;99.90
18218;DHT22;9234;49.344;11.120;2023-11-19T06:42:37;8.90;99.90
18218;DHT22;9234;49.344;11.120;2023-11-19T06:45:06;9.00;99.90
18218;DHT22;9234;49.344;11.120;2023-11-19T06:47:36;9.00;99.90
18218;DHT22;9234;49.344;11.120;2023-11-19T06:50:06;9.00;99.90
18218;DHT22;9234;49.344;11.120;2023-11-19T06:52:36;9.00;99.90
18218;DHT22;9234;49.344;11.120;2023-11-19T06:55:05;9.00;99.90
18218;DHT22;9234;49.344;11.120;2023-11-19T06:57:35;9.10;99.90
18218;DHT22;9234;49.344;11.120;2023-11-19T07:00:05;9.10;99.90
18218;DHT22;9234;49.344;11.120;2023-11-19T07:02:36;9.10;99.90
18218;DHT22;9234;49.344;11.120;2023-11-19T07:05:05;9.10;99.90
18218;DHT22;9234;49.344;11.120;2023-11-19T07:07:35;9.10;99.90
18218;DHT22;9234;49.344;11.120;2023-11-19T07:10:04;9.20;99.90
18218;DHT22;9234;49.344;11.120;2023-11-19T07:12:36;9.20;99.90
18218;DHT22;9234;49.344;11.120;2023-11-19T07:15:05;9.20;99.90
18218;DHT22;9234;49.344;11.120;2023-11-19T07:17:35;9.20;99.90
18218;DHT22;9234;49.344;11.120;2023-11-19T07:20:05;9.20;99.90
18218;DHT22;9234;49.344;11.120;2023-11-19T07:22:34;9.30;99.90
18218;DHT22;9234;49.344;11.120;2023-11-19T07:25:05;9.30;99.90
18218;DHT22;9234;49.344;11.120;2023-11-19T07:27:35;9.30;99.90
18218;DHT22;9234;49.344;11.120;2023-11-19T07:30:05;9.40;99.90
18218;DHT22;9234;49.344;11.120;2023-11-19T07:32:35;9.40;99.90
18218;DHT22;9234;49.344;11.120;2023-11-19T07:35:06;9.50;99.90
18218;DHT22;9234;49.344;11.120;2023-11-19T07:37:35;9.50;99.90
18218;DHT22;9234;49.344;11.120;2023-11-19T07:40:05;9.60;99.90
18218;DHT22;9234;49.344;11.120;2023-11-19T07:42:34;9.70;99.90
18218;DHT22;9234;49.344;11.120;2023-11-19T07:45:05;9.80;99.90
18218;DHT22;9234;49.344;11.120;2023-11-19T07:47:35;9.90;99.90
18218;DHT22;9234;49.344;11.120;2023-11-19T07:50:06;10.00;99.90
18218;DHT22;9234;49.344;11.120;2023-11-19T07:52:34;10.00;99.90
18218;DHT22;9234;49.344;11.120;2023-11-19T07:55:05;10.10;99.90
18218;DHT22;9234;49.344;11.120;2023-11-19T07:57:34;10.20;99.90
18218;DHT22;9234;49.344;11.120;2023-11-19T08:00:03;10.30;99.90
18218;DHT22;9234;49.344;11.120;2023-11-19T08:02:39;10.30;99.90
18218;DHT22;9234;49.344;11.120;2023-11-19T08:05:08;10.40;99.90
18218;DHT22;9234;49.344;11.120;2023-11-19T08:07:37;10.40;99.90
18218;DHT22;9234;49.344;11.120;2023-11-19T08:10:06;10.50;99.90
18218;DHT22;9234;49.344;11.120;2023-11-19T08:12:36;10.60;99.90
18218;DHT22;9234;49.344;11.120;2023-11-19T08:15:05;10.60;99.90
18218;DHT22;9234;49.344;11.120;2023-11-19T08:17:34;10.70;99.90
18218;DHT22;9234;49.344;11.120;2023-11-19T08:20:05;10.80;99.90
18218;DHT22;9234;49.344;11.120;2023-11-19T08:22:37;10.90;99.90
18218;DHT22;9234;49.344;11.120;2023-11-19T08:25:05;11.00;99.90
18218;DHT22;9234;49.344;11.120;2023-11-19T08:27:34;11.00;99.90
18218;DHT22;9234;49.344;11.120;2023-11-19T08:30:06;11.10;99.90
18218;DHT22;9234;49.344;11.120;2023-11-19T08:32:35;11.10;99.90
18218;DHT22;9234;49.344;11.120;2023-11-19T08:35:06;11.20;99.90
18218;DHT22;9234;49.344;11.120;2023-11-19T08:37:35;11.20;99.90
18218;DHT22;9234;49.344;11.120;2023-11-19T08:40:05;11.20;99.90
18218;DHT22;9234;49.344;11.120;2023-11-19T08:42:35;11.30;99.90
18218;DHT22;9234;49.344;11.120;2023-11-19T08:45:04;11.40;99.90
18218;DHT22;9234;49.344;11.120;2023-11-19T08:47:32;11.50;99.90
18218;DHT22;9234;49.344;11.120;2023-11-19T08:50:01;11.50;99.90
18218;DHT22;9234;49.344;11.120;2023-11-19T08:52:32;11.60;99.90
18218;DHT22;9234;49.344;11.120;2023-11-19T08:55:01;11.60;99.90
18218;DHT22;9234;49.344;11.120;2023-11-19T08:57:32;11.70;99.90
18218;DHT22;9234;49.344;11.120;2023-11-19T09:00:00;11.70;99.90
18218;DHT22;9234;49.344;11.120;2023-11-19T09:02:29;11.80;99.90
18218;DHT22;9234;49.344;11.120;2023-11-19T09:04:59;11.80;99.90
18218;DHT22;9234;49.344;11.120;2023-11-19T09:07:27;11.90;99.90
18218;DHT22;9234;49.344;11.120;2023-11-19T09:09:57;12.00;99.90
18218;DHT22;9234;49.344;11.120;2023-11-19T09:12:25;12.00;99.90
18218;DHT22;9234;49.344;11.120;2023-11-19T09:14:54;12.10;99.90
18218;DHT22;9234;49.344;11.120;2023-11-19T09:17:22;12.20;99.90
18218;DHT22;9234;49.344;11.120;2023-11-19T09:19:50;12.30;99.90
18218;DHT22;9234;49.344;11.120;2023-11-19T09:22:18;12.40;99.90
18218;DHT22;9234;49.344;11.120;2023-11-19T09:24:47;12.50;99.90
18218;DHT22;9234;49.344;11.120;2023-11-19T09:27:16;12.60;99.90
18218;DHT22;9234;49.344;11.120;2023-11-19T09:29:45;12.70;99.90
18218;DHT22;9234;49.344;11.120;2023-11-19T09:32:15;12.70;99.90
18218;DHT22;9234;49.344;11.120;2023-11-19T09:34:43;12.90;99.90
18218;DHT22;9234;49.344;11.120;2023-11-19T09:37:14;12.90;99.90
18218;DHT22;9234;49.344;11.120;2023-11-19T09:39:45;13.00;99.90
18218;DHT22;9234;49.344;11.120;2023-11-19T09:42:14;13.10;99.90
18218;DHT22;9234;49.344;11.120;2023-11-19T09:44:45;13.10;99.90
18218;DHT22;9234;49.344;11.120;2023-11-19T09:47:17;13.20;99.90
18218;DHT22;9234;49.344;11.120;2023-11-19T09:49:48;13.30;99.90
18218;DHT22;9234;49.344;11.120;2023-11-19T09:52:17;13.30;99.90
18218;DHT22;9234;49.344;11.120;2023-11-19T09:54:46;13.30;99.90
18218;DHT22;9234;49.344;11.120;2023-11-19T09:57:16;13.30;99.90
18218;DHT22;9234;49.344;11.120;2023-11-19T09:59:45;13.40;99.90
18218;DHT22;9234;49.344;11.120;2023-11-19T10:02:15;13.40;99.90
18218;DHT22;9234;49.344;11.120;2023-11-19T10:04:46;13.40;99.90
18218;DHT22;9234;49.344;11.120;2023-11-19T10:07:16;13.40;99.90
18218;DHT22;9234;49.344;11.120;2023-11-19T10:09:44;13.50;99.90
18218;DHT22;9234;49.344;11.120;2023-11-19T10:12:16;13.50;99.90
18218;DHT22;9234;49.344;11.120;2023-11-19T10:14:44;13.50;99.90
18218;DHT22;9234;49.344;11.120;2023-11-19T10:17:14;13.50;99.90
18218;DHT22;9234;49.344;11.120;2023-11-19T10:19:42;13.50;99.90
18218;DHT22;9234;49.344;11.120;2023-11-19T10:22:11;13.40;99.90
18218;DHT22;9234;49.344;11.120;2023-11-19T10:24:41;13.40;99.90
18218;DHT22;9234;49.344;11.120;2023-11-19T10:27:16;13.40;99.90
18218;DHT22;9234;49.344;11.120;2023-11-19T10:29:45;13.40;99.90
18218;DHT22;9234;49.344;11.120;2023-11-19T10:32:14;13.30;99.90
18218;DHT22;9234;49.344;11.120;2023-11-19T10:35:01;13.20;99.90
18218;DHT22;9234;49.344;11.120;2023-11-19T10:37:32;13.10;99.90
18218;DHT22;9234;49.344;11.120;2023-11-19T10:40:06;13.10;99.90
18218;DHT22;9234;49.344;11.120;2023-11-19T10:42:38;13.10;99.90
18218;DHT22;9234;49.344;11.120;2023-11-19T10:45:22;13.10;99.90
18218;DHT22;9234;49.344;11.120;2023-11-19T10:47:52;13.20;99.90
18218;DHT22;9234;49.344;11.120;2023-11-19T10:50:20;13.20;99.90
18218;DHT22;9234;49.344;11.120;2023-11-19T10:52:53;13.30;99.90
18218;DHT22;9234;49.344;11.120;2023-11-19T10:55:28;13.50;99.90
18218;DHT22;9234;49.344;11.120;2023-11-19T10:58:00;13.60;99.90
18218;DHT22;9234;49.344;11.120;2023-11-19T11:00:38;13.70;99.90
18218;DHT22;9234;49.344;11.120;2023-11-19T11:03:16;13.80;99.90
18218;DHT22;9234;49.344;11.120;2023-11-19T11:05:47;13.90;99.90
18218;DHT22;9234;49.344;11.120;2023-11-19T11:08:17;14.00;99.90
18218;DHT22;9234;49.344;11.120;2023-11-19T11:10:50;14.10;99.90
18218;DHT22;9234;49.344;11.120;2023-11-19T11:13:26;14.20;99.90
18218;DHT22;9234;49.344;11.120;2023-11-19T11:15:56;14.20;99.90
18218;DHT22;9234;49.344;11.120;2023-11-19T11:18:26;14.20;99.90
18218;DHT22;9234;49.344;11.120;2023-11-19T11:20:59;14.20;99.90
18218;DHT22;9234;49.344;11.120;2023-11-19T11:24:06;14.20;99.90
18218;DHT22;9234;49.344;11.120;2023-11-19T11:27:06;14.20;99.90
18218;DHT22;9234;49.344;11.120;2023-11-19T11:29:59;14.20;99.90
18218;DHT22;9234;49.344;11.120;2023-11-19T11:32:43;14.30;99.90
18218;DHT22;9234;49.344;11.120;2023-11-19T11:35:30;14.30;99.90
18218;DHT22;9234;49.344;11.120;2023-11-19T11:38:09;14.30;99.90
18218;DHT22;9234;49.344;11.120;2023-11-19T11:40:39;14.30;99.90
18218;DHT22;9234;49.344;11.120;2023-11-19T11:49:28;14.50;99.90
18218;DHT22;9234;49.344;11.120;2023-11-19T11:52:01;14.60;99.90
18218;DHT22;9234;49.344;11.120;2023-11-19T11:54:34;14.70;99.90
18218;DHT22;9234;49.344;11.120;2023-11-19T11:57:05;14.80;99.90
18218;DHT22;9234;49.344;11.120;2023-11-19T11:59:46;14.80;99.90
18218;DHT22;9234;49.344;11.120;2023-11-19T12:02:18;14.80;99.90
18218;DHT22;9234;49.344;11.120;2023-11-19T12:04:50;14.80;99.90
18218;DHT22;9234;49.344;11.120;2023-11-19T12:07:21;14.80;99.90
18218;DHT22;9234;49.344;11.120;2023-11-19T12:10:05;14.70;99.90
18218;DHT22;9234;49.344;11.120;2023-11-19T12:12:35;14.70;99.90
18218;DHT22;9234;49.344;11.120;2023-11-19T12:15:06;14.70;99.90
18218;DHT22;9234;49.344;11.120;2023-11-19T12:17:54;14.60;99.90
18218;DHT22;9234;49.344;11.120;2023-11-19T12:20:23;14.50;99.90
18218;DHT22;9234;49.344;11.120;2023-11-19T12:22:55;14.40;99.90
18218;DHT22;9234;49.344;11.120;2023-11-19T12:25:24;14.40;99.90
18218;DHT22;9234;49.344;11.120;2023-11-19T12:27:53;14.40;99.90
18218;DHT22;9234;49.344;11.120;2023-11-19T12:30:22;14.40;99.90
18218;DHT22;9234;49.344;11.120;2023-11-19T12:32:54;14.60;99.90
18218;DHT22;9234;49.344;11.120;2023-11-19T12:35:22;14.80;99.90
18218;DHT22;9234;49.344;11.120;2023-11-19T12:37:51;15.00;99.90
18218;DHT22;9234;49.344;11.120;2023-11-19T12:40:21;15.30;99.90
18218;DHT22;9234;49.344;11.120;2023-11-19T12:42:53;15.40;99.90
18218;DHT22;9234;49.344;11.120;2023-11-19T12:45:22;15.60;99.90
18218;DHT22;9234;49.344;11.120;2023-11-19T12:48:06;15.70;99.90
18218;DHT22;9234;49.344;11.120;2023-11-19T12:50:51;15.80;99.90
18218;DHT22;9234;49.344;11.120;2023-11-19T12:53:21;15.70;99.90
18218;DHT22;9234;49.344;11.120;2023-11-19T12:55:50;15.60;99.90
18218;DHT22;9234;49.344;11.120;2023-11-19T12:58:28;15.60;99.90
18218;DHT22;9234;49.344;11.120;2023-11-19T13:01:01;15.50;99.90
18218;DHT22;9234;49.344;11.120;2023-11-19T13:03:32;15.50;99.90
18218;DHT22;9234;49.344;11.120;2023-11-19T13:06:02;15.50;99.90
18218;DHT22;9234;49.344;11.120;2023-11-19T13:08:39;15.60;99.90
18218;DHT22;9234;49.344;11.120;2023-11-19T13:11:08;15.70;99.90
18218;DHT22;9234;49.344;11.120;2023-11-19T13:13:56;15.80;99.90
18218;DHT22;9234;49.344;11.120;2023-11-19T13:16:27;15.90;99.90
18218;DHT22;9234;49.344;11.120;2023-11-19T13:18:58;16.00;99.90
18218;DHT22;9234;49.344;11.120;2023-11-19T13:21:27;16.20;99.90
18218;DHT22;9234;49.344;11.120;2023-11-19T13:23:56;16.20;99.90
18218;DHT22;9234;49.344;11.120;2023-11-19T13:26:25;16.20;99.90
18218;DHT22;9234;49.344;11.120;2023-11-19T13:28:53;16.20;99.90
18218;DHT22;9234;49.344;11.120;2023-11-19T13:31:21;16.20;99.90
18218;DHT22;9234;49.344;11.120;2023-11-19T13:33:50;16.30;99.90
18218;DHT22;9234;49.344;11.120;2023-11-19T13:36:19;16.40;99.90
18218;DHT22;9234;49.344;11.120;2023-11-19T13:38:48;16.60;99.90
18218;DHT22;9234;49.344;11.120;2023-11-19T13:41:16;16.60;99.90
18218;DHT22;9234;49.344;11.120;2023-11-19T13:43:45;16.50;99.90
18218;DHT22;9234;49.344;11.120;2023-11-19T13:46:13;16.40;99.90
18218;DHT22;9234;49.344;11.120;2023-11-19T13:48:41;16.40;99.90
18218;DHT22;9234;49.344;11.120;2023-11-19T13:51:10;16.20;99.90
18218;DHT22;9234;49.344;11.120;2023-11-19T13:53:40;16.10;99.90
18218;DHT22;9234;49.344;11.120;2023-11-19T13:56:11;15.90;99.90
18218;DHT22;9234;49.344;11.120;2023-11-19T13:58:39;15.80;99.90
18218;DHT22;9234;49.344;11.120;2023-11-19T14:01:08;15.70;99.90
18218;DHT22;9234;49.344;11.120;2023-11-19T14:03:36;15.60;99.90
18218;DHT22;9234;49.344;11.120;2023-11-19T14:06:05;15.40;99.90
18218;DHT22;9234;49.344;11.120;2023-11-19T14:08:35;15.30;99.90
18218;DHT22;9234;49.344;11.120;2023-11-19T14:11:06;15.30;99.90
18218;DHT22;9234;49.344;11.120;2023-11-19T14:13:34;15.20;99.90
18218;DHT22;9234;49.344;11.120;2023-11-19T14:16:03;15.20;99.90
18218;DHT22;9234;49.344;11.120;2023-11-19T14:18:33;15.10;99.90
18218;DHT22;9234;49.344;11.120;2023-11-19T14:21:02;15.10;99.90
18218;DHT22;9234;49.344;11.120;2023-11-19T14:23:32;15.10;99.90
18218;DHT22;9234;49.344;11.120;2023-11-19T14:26:00;15.00;99.90
18218;DHT22;9234;49.344;11.120;2023-11-19T14:28:30;15.00;99.90
18218;DHT22;9234;49.344;11.120;2023-11-19T14:30:58;15.00;99.90
18218;DHT22;9234;49.344;11.120;2023-11-19T14:33:27;14.90;99.90
18218;DHT22;9234;49.344;11.120;2023-11-19T14:35:55;14.90;99.90
18218;DHT22;9234;49.344;11.120;2023-11-19T14:38:23;14.80;99.90
18218;DHT22;9234;49.344;11.120;2023-11-19T14:40:52;14.70;99.90
18218;DHT22;9234;49.344;11.120;2023-11-19T14:43:21;14.60;99.90
18218;DHT22;9234;49.344;11.120;2023-11-19T14:45:52;14.50;99.90
18218;DHT22;9234;49.344;11.120;2023-11-19T14:48:23;14.50;99.90
18218;DHT22;9234;49.344;11.120;2023-11-19T14:50:51;14.40;99.90
18218;DHT22;9234;49.344;11.120;2023-11-19T14:53:19;14.30;99.90
18218;DHT22;9234;49.344;11.120;2023-11-19T14:55:47;14.20;99.90
18218;DHT22;9234;49.344;11.120;2023-11-19T14:58:16;14.10;99.90
18218;DHT22;9234;49.344;11.120;2023-11-19T15:00:44;14.10;99.90
18218;DHT22;9234;49.344;11.120;2023-11-19T15:03:14;14.00;99.90
18218;DHT22;9234;49.344;11.120;2023-11-19T15:05:43;13.90;99.90
18218;DHT22;9234;49.344;11.120;2023-11-19T15:08:12;13.90;99.90
18218;DHT22;9234;49.344;11.120;2023-11-19T15:10:43;13.80;99.90
18218;DHT22;9234;49.344;11.120;2023-11-19T15:13:13;13.80;99.90
18218;DHT22;9234;49.344;11.120;2023-11-19T15:15:41;13.70;99.90
18218;DHT22;9234;49.344;11.120;2023-11-19T15:18:10;13.60;99.90
18218;DHT22;9234;49.344;11.120;2023-11-19T15:20:40;13.60;99.90
18218;DHT22;9234;49.344;11.120;2023-11-19T15:23:08;13.60;99.90
18218;DHT22;9234;49.344;11.120;2023-11-19T15:25:36;13.60;99.90
18218;DHT22;9234;49.344;11.120;2023-11-19T15:28:05;13.60;99.90
18218;DHT22;9234;49.344;11.120;2023-11-19T15:30:33;13.60;99.90
18218;DHT22;9234;49.344;11.120;2023-11-19T15:33:02;13.50;99.90
18218;DHT22;9234;49.344;11.120;2023-11-19T15:35:30;13.50;99.90
18218;DHT22;9234;49.344;11.120;2023-11-19T15:38:00;13.50;99.90
18218;DHT22;9234;49.344;11.120;2023-11-19T15:40:29;13.50;99.90
18218;DHT22;9234;49.344;11.120;2023-11-19T15:42:57;13.40;99.90
18218;DHT22;9234;49.344;11.120;2023-11-19T15:45:26;13.30;99.90
18218;DHT22;9234;49.344;11.120;2023-11-19T15:47:54;13.30;99.90
18218;DHT22;9234;49.344;11.120;2023-11-19T15:50:22;13.20;99.90
18218;DHT22;9234;49.344;11.120;2023-11-19T15:52:51;13.20;99.90
18218;DHT22;9234;49.344;11.120;2023-11-19T15:55:20;13.10;99.90
18218;DHT22;9234;49.344;11.120;2023-11-19T15:57:49;13.10;99.90
18218;DHT22;9234;49.344;11.120;2023-11-19T16:00:17;13.10;99.90
18218;DHT22;9234;49.344;11.120;2023-11-19T16:02:48;13.00;99.90